Latest Aviation Weather Report (METAR)

METAR VMMC 200400Z 36018KT 9000 FEW010 SCT015 BKN025 17/15 Q1020 NOSIG=

Decoded METAR in plain language
Contents of Report Code Information
Report Type METAR Aviation Routine Weather Report
Location VMMC Macao, China
Time of the Observation 200400Z 20/11/2017 04:00:00 UTC
Surface Wind Direction and Speed 36018KT mean direction 360 degrees, speed 18 knots
Visibility 9000 9 kilometres
Present Weather    
Cloud FEW010 SCT015 BKN025 amount 1-2 oktas; base 1000 feet
amount 3-4 oktas; base 1500 feet
amount 5-7 oktas; base 2500 feet
Air Temperature and Dew-Point Temperature 17/15 air temperature 17°C
dew point temperature 15°C
Pressure (QNH) Q1020 1020 hPa
Trend Forecasts During Next Two Hours NOSIG no significant changes

OTHER INTERNATIONAL AIRPORTS:
Weather Forecast (TAF)   Weather Report (METAR)